Terminal Aerodrome Forecast
Issued by NWS Cleveland, OH

Home | Current Version | Previous Version | Graphics & Text | Print | Product List | Glossary On
Versions: 1 2 3 4 5 6 7 8 9 10 11 12 13 14 15 16 17 18 19 20 21 22
169
FTUS41 KCLE 191730
TAFCLE
TAF
KCLE 191730Z 1918/2024 32008KT P6SM SCT040
     FM200200 VRB03KT P6SM BKN200
      TEMPO 2009/2013 4SM BR
     FM201500 22006KT P6SM BKN050=

USA.gov is the U.S. government's official web portal to all federal, state and local government web resources and services.